Time;durP1;ratioP1;P1;durP2;ratioP2;P2;SDS_P1;SDS_P2;PMS_P1;PMS_P2;Temp;Humidity;BMP_temperature;BMP_pressure;BME280_temperature;BME280_humidity;BME280_pressure;Samples;Min_cycle;Max_cycle;Signal;HPM_P1;HPM_P2
2023/09/08 00:15:02;;;;;;;;;;;;;;;;;;;;;
2023/09/08 00:56:36;;;;;;;13.30;7.78;;;17.10;99.90;;;;;;4786714;29;86545;-75
2023/09/08 01:17:24;;;;;;;11.50;8.19;;;16.90;99.90;;;;;;4249577;30;10597767;-77
2023/09/08 01:24:13;;;;;;;;;;;16.90;99.90;;;;;;4648176;30;86924;-74
2023/09/08 02:12:31;;;;;;;8.75;7.35;;;16.50;99.90;;;;;;5740728;22;11195465;-76
2023/09/08 02:15:31;;;;;;;12.18;7.55;;;16.50;99.90;;;;;;6200582;22;87642;-76
2023/09/08 02:18:27;;;;;;;;;;;;;;;;;;;;;
2023/09/08 03:41:58;;;;;;;;;;;;;;;;;;;;;
2023/09/08 05:02:18;;;;;;;13.23;9.25;;;15.60;99.90;;;;;;6034290;22;15056121;-76
2023/09/08 05:44:54;;;;;;;;;;;;;;;;;;;;;
2023/09/08 05:47:49;;;;;;;20.63;11.85;;;15.80;99.90;;;;;;6162372;22;111906;-76
2023/09/08 05:51:14;;;;;;;;;;;;;;;;;;;;;
2023/09/08 07:43:58;;;;;;;18.58;10.45;;;20.40;99.90;;;;;;6165246;22;85991;-80
2023/09/08 07:46:24;;;;;;;15.15;10.23;;;20.40;99.90;;;;;;6139364;22;86106;-80
2023/09/08 07:48:50;;;;;;;15.90;9.95;;;20.60;99.90;;;;;;6136348;22;85870;-80
2023/09/08 07:51:16;;;;;;;14.02;9.30;;;20.60;99.90;;;;;;6139940;22;86665;-79
2023/09/08 07:53:41;;;;;;;12.57;9.73;;;20.70;99.90;;;;;;6141936;22;89052;-80
2023/09/08 07:56:07;;;;;;;13.20;8.95;;;20.90;99.30;;;;;;6144812;22;85945;-79
2023/09/08 08:06:23;;;;;;;12.05;8.88;;;21.40;98.90;;;;;;6124783;23;86442;-72
2023/09/08 08:08:48;;;;;;;20.27;9.52;;;21.50;98.40;;;;;;6122267;23;86600;-72
2023/09/08 08:11:17;;;;;;;10.95;8.63;;;21.60;98.70;;;;;;6125717;23;86605;-76
2023/09/08 08:13:43;;;;;;;11.35;8.35;;;21.70;98.50;;;;;;6119405;23;89171;-79
2023/09/08 08:16:09;;;;;;;24.65;9.85;;;21.80;98.40;;;;;;6123557;23;86342;-74
2023/09/08 08:18:35;;;;;;;12.93;8.20;;;22.00;98.00;;;;;;6121093;23;86387;-76
2023/09/08 08:21:03;;;;;;;12.20;7.30;;;22.10;97.70;;;;;;6120580;22;90827;-76
2023/09/08 08:23:28;;;;;;;13.68;8.50;;;22.20;97.10;;;;;;6120521;22;86562;-76
2023/09/08 08:25:54;;;;;;;13.65;7.90;;;22.40;97.10;;;;;;6092896;23;86159;-76
2023/09/08 08:28:20;;;;;;;12.63;7.63;;;22.50;96.50;;;;;;6117049;23;86533;-78
2023/09/08 08:30:47;;;;;;;11.38;8.07;;;22.70;96.10;;;;;;6116701;23;90187;-79
2023/09/08 08:33:13;;;;;;;11.90;7.55;;;22.80;96.20;;;;;;6114787;23;86408;-78
2023/09/08 08:35:39;;;;;;;14.55;7.82;;;22.90;95.30;;;;;;6114118;23;86300;-78
2023/09/08 08:38:05;;;;;;;13.43;7.63;;;23.00;95.20;;;;;;6114155;22;87062;-73
2023/09/08 08:40:38;;;;;;;12.57;8.82;;;23.20;95.70;;;;;;6117078;23;88072;-77
2023/09/08 08:43:04;;;;;;;;;;;23.30;94.70;;;;;;6119944;23;87248;-80
2023/09/08 08:45:30;;;;;;;10.55;8.35;;;23.50;94.20;;;;;;6121162;23;86298;-79
2023/09/08 08:47:57;;;;;;;9.98;7.38;;;23.60;93.60;;;;;;6119397;23;87126;-79
2023/09/08 08:50:24;;;;;;;12.38;7.72;;;23.80;94.00;;;;;;6117521;23;90328;-78
2023/09/08 08:52:50;;;;;;;11.15;8.30;;;23.90;94.30;;;;;;6116764;22;89345;-78
2023/09/08 08:55:15;;;;;;;15.50;8.13;;;24.00;93.30;;;;;;6118359;23;86325;-81
2023/09/08 08:57:41;;;;;;;12.00;8.10;;;24.20;93.20;;;;;;6117924;22;86340;-80
2023/09/08 09:00:13;;;;;;;14.82;8.00;;;24.30;92.70;;;;;;6116940;23;90101;-78
2023/09/08 09:02:50;;;;;;;11.13;7.47;;;24.50;92.70;;;;;;6117745;22;87404;-84
2023/09/08 09:05:16;;;;;;;13.50;7.78;;;24.60;93.50;;;;;;6116514;23;86636;-79
2023/09/08 09:07:42;;;;;;;9.95;7.55;;;24.80;93.10;;;;;;6117006;23;86216;-79
2023/09/08 09:10:08;;;;;;;10.82;7.40;;;25.00;93.60;;;;;;6117996;23;86736;-82
2023/09/08 09:12:37;;;;;;;15.23;7.57;;;25.10;93.30;;;;;;6117388;23;90203;-79
2023/09/08 09:15:04;;;;;;;9.98;7.53;;;25.30;92.70;;;;;;6115983;22;86693;-77
2023/09/08 09:17:36;;;;;;;13.15;7.38;;;25.50;91.00;;;;;;6116967;23;86157;-79
2023/09/08 09:20:20;;;;;;;17.77;7.35;;;25.70;91.70;;;;;;6116233;23;90401;-78
2023/09/08 09:22:55;;;;;;;8.13;6.90;;;25.90;90.10;;;;;;6116361;23;89402;-80
2023/09/08 09:25:27;;;;;;;12.20;7.13;;;26.10;88.70;;;;;;6116764;23;86522;-77
2023/09/08 09:27:54;;;;;;;8.60;6.90;;;26.20;90.10;;;;;;6116794;23;85763;-79
2023/09/08 09:30:21;;;;;;;9.23;6.88;;;26.30;89.60;;;;;;6091536;23;90455;-78
2023/09/08 09:32:49;;;;;;;8.40;5.93;;;26.40;86.90;;;;;;6116375;22;86372;-78
2023/09/08 09:35:16;;;;;;;10.77;6.07;;;26.50;88.50;;;;;;6117509;23;86047;-83
2023/09/08 09:37:41;;;;;;;9.52;6.38;;;26.70;88.90;;;;;;6117646;22;86210;-78
2023/09/08 09:40:09;;;;;;;15.27;6.45;;;26.90;86.50;;;;;;6116528;23;90555;-79
2023/09/08 09:42:40;;;;;;;6.82;5.10;;;27.10;88.70;;;;;;6115421;22;90371;-80
2023/09/08 09:45:06;;;;;;;9.07;6.72;;;27.30;88.40;;;;;;6115003;22;86385;-80
2023/09/08 09:47:32;;;;;;;6.78;5.90;;;27.50;87.20;;;;;;6111394;23;86326;-79
2023/09/08 09:49:58;;;;;;;10.13;6.07;;;27.70;84.90;;;;;;6112186;23;89301;-78
2023/09/08 09:52:26;;;;;;;7.00;6.03;;;27.90;86.20;;;;;;6112430;23;88422;-79
2023/09/08 09:54:54;;;;;;;14.88;6.32;;;28.00;83.40;;;;;;6113227;23;86078;-80
2023/09/08 09:57:22;;;;;;;10.15;6.03;;;28.10;82.20;;;;;;6112274;23;86528;-78
2023/09/08 09:59:51;;;;;;;6.80;5.50;;;28.30;82.10;;;;;;6113647;23;87384;-78
2023/09/08 10:02:21;;;;;;;11.57;6.80;;;28.30;82.60;;;;;;6111862;23;86902;-77
2023/09/08 10:04:49;;;;;;;8.35;6.35;;;28.40;80.70;;;;;;6110073;23;86372;-78
2023/09/08 10:07:16;;;;;;;6.22;4.65;;;28.60;82.10;;;;;;6112925;23;86509;-80
2023/09/08 10:09:42;;;;;;;7.32;5.00;;;28.70;81.90;;;;;;6113428;22;86501;-78
2023/09/08 10:12:12;;;;;;;8.10;4.85;;;28.90;80.20;;;;;;6113208;23;86304;-79
2023/09/08 10:14:43;;;;;;;9.25;5.05;;;29.00;80.60;;;;;;6113122;23;86595;-81
2023/09/08 10:17:25;;;;;;;6.15;4.85;;;29.10;78.20;;;;;;6113545;22;86464;-78
2023/09/08 10:19:58;;;;;;;5.25;4.57;;;29.40;80.40;;;;;;6113956;23;87094;-78
2023/09/08 10:22:31;;;;;;;7.10;4.30;;;29.50;80.60;;;;;;6087703;22;89551;-78
2023/09/08 10:25:01;;;;;;;9.27;3.90;;;29.70;80.70;;;;;;6114751;23;86144;-78
2023/09/08 10:27:27;;;;;;;5.80;4.47;;;30.00;80.70;;;;;;6114873;23;86166;-79
2023/09/08 10:30:03;;;;;;;5.47;4.60;;;30.20;77.50;;;;;;6112322;23;88376;-79
2023/09/08 10:32:29;;;;;;;11.60;4.68;;;30.40;74.60;;;;;;6113675;23;87588;-79
2023/09/08 10:34:57;;;;;;;6.07;3.70;;;30.50;75.00;;;;;;6112644;22;86605;-80
2023/09/08 10:37:25;;;;;;;6.30;3.72;;;30.70;76.70;;;;;;6114139;23;86286;-77
2023/09/08 10:39:51;;;;;;;10.68;4.15;;;30.80;77.10;;;;;;6113903;23;89940;-78
2023/09/08 10:42:17;;;;;;;8.65;4.05;;;31.00;71.40;;;;;;6114029;23;87114;-77
2023/09/08 10:44:51;;;;;;;7.35;4.15;;;31.10;73.60;;;;;;6091482;23;86419;-79
2023/09/08 10:47:30;;;;;;;5.97;3.53;;;31.20;70.50;;;;;;6087332;23;86282;-78
2023/09/08 10:49:57;;;;;;;7.38;3.65;;;31.40;70.80;;;;;;6117222;22;90753;-79
2023/09/08 10:52:24;;;;;;;6.22;4.00;;;31.60;70.50;;;;;;6117950;22;88832;-76
2023/09/08 10:54:54;;;;;;;4.65;3.88;;;31.70;67.50;;;;;;6119173;23;86275;-80
2023/09/08 10:57:22;;;;;;;6.05;3.75;;;31.80;69.90;;;;;;6116901;23;85852;-81
2023/09/08 11:00:11;;;;;;;8.13;4.22;;;31.80;67.70;;;;;;6117276;22;86766;-77
2023/09/08 11:02:41;;;;;;;8.10;4.25;;;31.90;66.70;;;;;;6116229;22;89945;-79
2023/09/08 11:05:10;;;;;;;11.38;3.95;;;31.90;68.00;;;;;;6117627;23;85963;-77
2023/09/08 11:07:37;;;;;;;11.60;4.28;;;32.00;66.70;;;;;;6118357;23;86195;-79
2023/09/08 11:10:04;;;;;;;8.90;4.55;;;32.00;67.60;;;;;;6120525;23;86790;-80
2023/09/08 11:12:30;;;;;;;4.95;4.28;;;32.00;63.70;;;;;;6117388;22;89164;-78
2023/09/08 11:14:56;;;;;;;8.05;3.80;;;32.20;66.60;;;;;;6118816;22;86085;-79
2023/09/08 11:17:26;;;;;;;5.82;4.07;;;32.30;67.60;;;;;;6118437;23;85962;-79
2023/09/08 11:19:51;;;;;;;6.53;3.90;;;32.60;63.90;;;;;;6117421;22;89590;-77
2023/09/08 11:22:18;;;;;;;6.10;3.85;;;32.60;61.90;;;;;;6117704;23;86406;-83
2023/09/08 11:24:44;;;;;;;7.20;4.15;;;32.70;62.50;;;;;;6094397;23;90955;-79
2023/09/08 11:27:11;;;;;;;4.55;3.22;;;32.80;61.60;;;;;;6118434;23;86267;-77
2023/09/08 11:29:40;;;;;;;5.57;4.03;;;32.90;66.60;;;;;;6118520;22;90331;-79
2023/09/08 11:32:07;;;;;;;4.22;3.80;;;33.20;64.60;;;;;;6119199;22;89446;-79
2023/09/08 11:34:34;;;;;;;5.25;3.70;;;33.30;63.90;;;;;;6118791;23;87918;-80
2023/09/08 11:37:00;;;;;;;7.13;3.65;;;33.30;60.30;;;;;;6120294;23;86799;-77
2023/09/08 11:39:26;;;;;;;5.03;3.22;;;33.50;64.90;;;;;;6120413;23;87866;-78
2023/09/08 11:41:52;;;;;;;5.53;3.88;;;33.50;62.60;;;;;;6119410;23;89669;-78
2023/09/08 11:44:18;;;;;;;6.47;3.97;;;33.50;60.40;;;;;;6118192;23;86466;-79
2023/09/08 11:46:45;;;;;;;6.63;4.30;;;33.50;62.00;;;;;;6115540;23;88352;-81
2023/09/08 11:49:14;;;;;;;4.25;3.30;;;33.60;64.30;;;;;;6114993;23;91122;-79
2023/09/08 11:51:39;;;;;;;11.43;4.45;;;33.70;63.40;;;;;;6090396;23;86338;-78
2023/09/08 11:54:05;;;;;;;7.35;3.95;;;33.80;59.90;;;;;;6088576;23;86538;-79
2023/09/08 11:56:32;;;;;;;8.63;4.30;;;33.90;61.00;;;;;;6090331;23;87042;-80
2023/09/08 11:58:58;;;;;;;5.88;3.85;;;34.10;59.50;;;;;;6090732;23;86481;-79
2023/09/08 12:01:24;;;;;;;7.38;3.85;;;34.10;57.20;;;;;;6089143;23;91047;-77
2023/09/08 12:03:55;;;;;;;7.60;3.65;;;34.10;57.10;;;;;;6091090;23;85966;-79
2023/09/08 12:06:27;;;;;;;6.10;3.70;;;34.10;57.80;;;;;;6088775;23;86447;-77
2023/09/08 12:08:59;;;;;;;9.48;4.03;;;34.10;57.60;;;;;;6089923;23;86638;-79
2023/09/08 12:11:31;;;;;;;6.53;3.90;;;34.20;58.80;;;;;;6089661;23;86316;-78
2023/09/08 12:14:07;;;;;;;4.82;4.05;;;34.20;58.50;;;;;;6113892;23;86124;-82
2023/09/08 12:16:33;;;;;;;9.60;4.15;;;34.10;57.70;;;;;;6088600;23;86848;-79
2023/09/08 12:18:59;;;;;;;13.20;4.43;;;34.20;58.60;;;;;;6100412;22;90427;-83
2023/09/08 12:21:25;;;;;;;5.95;3.55;;;34.30;57.70;;;;;;6148804;22;86747;-80
2023/09/08 12:23:52;;;;;;;7.78;3.72;;;34.50;63.30;;;;;;6146588;22;86114;-80
2023/09/08 12:26:19;;;;;;;10.15;3.38;;;34.90;62.80;;;;;;6148336;22;86431;-80
2023/09/08 12:28:45;;;;;;;10.68;5.03;;;35.30;59.60;;;;;;6147792;22;90415;-83
2023/09/08 12:31:13;;;;;;;8.75;3.80;;;35.50;58.10;;;;;;6147866;22;89836;-82
2023/09/08 12:33:39;;;;;;;10.13;3.70;;;35.60;55.30;;;;;;6147250;22;86257;-79
2023/09/08 12:36:18;;;;;;;6.38;3.13;;;35.70;59.50;;;;;;6147917;22;86210;-79
2023/09/08 12:38:48;;;;;;;7.88;3.50;;;35.80;58.10;;;;;;6146881;22;91658;-78
2023/09/08 12:41:15;;;;;;;5.30;3.30;;;36.00;55.00;;;;;;6146150;22;89857;-79
2023/09/08 12:43:40;;;;;;;5.65;3.08;;;36.10;55.30;;;;;;6146807;22;86497;-81
2023/09/08 12:46:06;;;;;;;4.05;2.75;;;36.40;55.70;;;;;;6147872;22;86781;-80
2023/09/08 12:48:31;;;;;;;4.93;3.00;;;36.60;55.70;;;;;;6143708;22;89729;-79
2023/09/08 12:50:58;;;;;;;7.40;3.15;;;36.90;55.30;;;;;;6140079;22;90186;-80
2023/09/08 12:53:24;;;;;;;2.95;2.70;;;37.10;50.20;;;;;;6116918;22;86183;-79
2023/09/08 12:55:50;;;;;;;8.40;3.20;;;37.20;50.20;;;;;;6117609;22;86584;-79
2023/09/08 12:58:16;;;;;;;8.27;3.70;;;37.20;49.80;;;;;;6116161;23;89198;-81
2023/09/08 13:00:51;;;;;;;8.57;3.10;;;37.30;49.70;;;;;;6116665;23;90006;-77
2023/09/08 13:03:17;;;;;;;7.13;2.88;;;37.40;49.70;;;;;;6116154;22;86394;-77
2023/09/08 13:05:42;;;;;;;7.95;3.28;;;37.50;48.90;;;;;;6116591;22;86157;-77
2023/09/08 13:08:08;;;;;;;5.80;3.13;;;37.80;50.10;;;;;;6117261;23;87460;-78
2023/09/08 13:10:34;;;;;;;6.22;3.30;;;37.90;48.80;;;;;;6116098;22;86296;-79
2023/09/08 13:13:00;;;;;;;5.22;2.85;;;38.00;48.40;;;;;;6140112;22;86423;-77
2023/09/08 13:15:25;;;;;;;6.63;2.67;;;38.30;49.70;;;;;;6116636;23;86290;-81
2023/09/08 13:17:51;;;;;;;7.60;3.10;;;38.60;46.30;;;;;;6134490;22;90369;-80
2023/09/08 13:20:17;;;;;;;5.95;3.20;;;38.80;48.50;;;;;;6146483;22;86270;-80
2023/09/08 13:22:43;;;;;;;3.95;2.90;;;39.00;47.50;;;;;;6145567;22;86119;-79
2023/09/08 13:25:09;;;;;;;3.90;3.10;;;39.00;47.70;;;;;;6145934;22;86220;-78
2023/09/08 13:27:34;;;;;;;4.85;3.20;;;39.30;48.10;;;;;;6147008;22;86054;-81
2023/09/08 13:30:11;;;;;;;7.28;3.00;;;39.60;48.00;;;;;;6146682;22;86396;-78
2023/09/08 13:32:37;;;;;;;5.93;2.85;;;39.70;46.60;;;;;;6146302;22;86324;-81
2023/09/08 13:35:04;;;;;;;6.95;3.40;;;39.80;45.80;;;;;;6146327;22;86031;-80
2023/09/08 13:37:30;;;;;;;11.65;3.00;;;40.00;45.90;;;;;;6146116;22;90311;-80
2023/09/08 13:39:56;;;;;;;7.68;2.97;;;40.30;44.00;;;;;;6146721;22;89724;-80
2023/09/08 13:42:22;;;;;;;6.00;2.60;;;40.60;47.20;;;;;;6148187;22;86122;-78
2023/09/08 13:44:48;;;;;;;3.33;2.85;;;40.90;44.80;;;;;;6144833;22;86380;-78
2023/09/08 13:47:14;;;;;;;7.75;3.20;;;41.10;43.60;;;;;;6145843;22;87960;-78
2023/09/08 13:49:39;;;;;;;4.10;2.60;;;41.30;42.40;;;;;;6144780;22;88924;-78
2023/09/08 13:52:05;;;;;;;4.63;3.05;;;41.40;43.40;;;;;;6146970;22;86483;-78
2023/09/08 13:54:32;;;;;;;7.18;2.70;;;41.70;42.60;;;;;;6146779;22;86583;-77
2023/09/08 13:57:04;;;;;;;11.57;2.70;;;41.90;42.30;;;;;;6145994;22;86816;-77
2023/09/08 13:59:30;;;;;;;12.63;2.80;;;42.00;41.10;;;;;;6144601;22;89648;-77
2023/09/08 14:01:57;;;;;;;4.95;2.60;;;41.90;40.50;;;;;;6169252;22;87019;-78
2023/09/08 14:04:23;;;;;;;5.68;2.40;;;42.30;40.50;;;;;;6143953;22;86266;-78
2023/09/08 14:06:49;;;;;;;4.65;2.60;;;42.30;41.00;;;;;;6170744;22;90679;-80
2023/09/08 14:09:15;;;;;;;6.55;2.67;;;42.50;41.60;;;;;;6146762;22;86947;-76
2023/09/08 14:11:41;;;;;;;7.22;3.00;;;42.60;39.90;;;;;;6145715;22;86170;-78
2023/09/08 14:14:07;;;;;;;5.65;2.67;;;42.60;39.50;;;;;;6146897;22;86484;-79
2023/09/08 14:16:32;;;;;;;5.82;2.97;;;42.80;40.30;;;;;;6147385;22;87849;-78
2023/09/08 14:18:58;;;;;;;5.25;2.60;;;42.90;41.00;;;;;;6173142;22;89920;-78
2023/09/08 14:21:24;;;;;;;7.43;2.78;;;42.90;39.10;;;;;;6148812;22;86282;-80
2023/09/08 14:23:49;;;;;;;4.82;2.35;;;42.50;40.00;;;;;;6172987;22;86697;-78
2023/09/08 14:26:15;;;;;;;7.00;2.50;;;42.60;41.00;;;;;;6149077;22;86523;-79
2023/09/08 14:28:40;;;;;;;6.43;2.58;;;42.80;40.70;;;;;;6147560;22;86817;-77
2023/09/08 14:31:06;;;;;;;5.70;2.40;;;42.80;40.70;;;;;;6171621;22;86418;-82
2023/09/08 14:33:32;;;;;;;6.18;2.33;;;43.20;39.20;;;;;;6149840;22;85698;-78
2023/09/08 14:35:57;;;;;;;9.57;2.72;;;43.30;40.20;;;;;;6146315;22;89653;-83
2023/09/08 14:38:24;;;;;;;5.22;2.63;;;43.40;39.60;;;;;;6148321;22;86221;-78
2023/09/08 14:41:00;;;;;;;5.63;2.40;;;43.50;40.00;;;;;;6147278;22;86226;-80
2023/09/08 14:43:27;;;;;;;4.43;2.28;;;43.70;40.20;;;;;;6146539;22;86121;-79
2023/09/08 14:45:54;;;;;;;4.15;2.35;;;43.90;38.70;;;;;;6147628;22;90725;-79
2023/09/08 14:48:20;;;;;;;3.58;2.45;;;44.10;36.90;;;;;;6145075;22;89823;-77
2023/09/08 14:50:46;;;;;;;7.13;2.60;;;44.20;38.00;;;;;;6147493;22;86521;-80
2023/09/08 14:53:12;;;;;;;5.32;2.45;;;44.30;37.80;;;;;;6171071;22;86275;-80
2023/09/08 14:55:38;;;;;;;5.90;2.88;;;44.40;37.60;;;;;;6146441;22;86503;-79
2023/09/08 14:58:04;;;;;;;5.45;2.53;;;44.50;36.30;;;;;;6147532;22;86290;-82
2023/09/08 15:00:32;;;;;;;5.10;2.63;;;44.50;36.60;;;;;;6145112;22;86240;-78
2023/09/08 15:02:57;;;;;;;10.57;3.05;;;44.40;37.00;;;;;;6143342;22;86539;-79
2023/09/08 15:05:23;;;;;;;3.75;2.25;;;44.40;36.30;;;;;;6140894;22;91427;-78
2023/09/08 15:07:49;;;;;;;10.35;2.90;;;44.40;37.10;;;;;;6140437;22;86856;-78
2023/09/08 15:10:15;;;;;;;8.68;2.90;;;44.50;36.80;;;;;;6141737;22;86279;-78
2023/09/08 15:12:41;;;;;;;3.72;2.70;;;44.50;37.10;;;;;;6140825;22;86518;-78
2023/09/08 15:15:07;;;;;;;3.65;2.45;;;44.50;36.80;;;;;;6139780;22;90633;-78
2023/09/08 15:17:33;;;;;;;7.70;3.53;;;44.50;36.50;;;;;;6141069;22;91478;-78
2023/09/08 15:19:59;;;;;;;4.72;2.60;;;44.60;36.60;;;;;;6164905;22;86369;-75
2023/09/08 15:22:25;;;;;;;6.70;3.60;;;44.70;36.50;;;;;;6166122;22;86204;-77
2023/09/08 15:24:51;;;;;;;6.18;2.65;;;44.70;36.10;;;;;;6166203;22;90126;-74
2023/09/08 15:27:17;;;;;;;4.93;2.83;;;44.60;36.70;;;;;;6141202;22;86569;-78
2023/09/08 15:29:42;;;;;;;6.72;2.58;;;44.60;36.60;;;;;;6141937;22;86274;-76
2023/09/08 15:32:08;;;;;;;4.32;2.40;;;44.60;37.20;;;;;;6155360;22;86534;-75
2023/09/08 15:34:34;;;;;;;7.00;2.70;;;44.50;37.00;;;;;;6115421;22;87468;-76
2023/09/08 15:37:00;;;;;;;5.50;2.38;;;44.60;36.90;;;;;;6166429;22;89780;-75
2023/09/08 15:39:26;;;;;;;5.07;2.40;;;44.60;37.10;;;;;;6141367;22;85771;-76
2023/09/08 15:41:52;;;;;;;10.73;2.55;;;44.70;36.90;;;;;;6143385;22;86203;-77
2023/09/08 15:44:18;;;;;;;7.97;2.78;;;44.90;37.30;;;;;;6142259;22;87886;-78
2023/09/08 15:46:45;;;;;;;7.20;2.55;;;45.10;37.10;;;;;;6142850;22;86239;-78
2023/09/08 15:49:11;;;;;;;8.00;2.53;;;45.10;36.90;;;;;;6142044;22;86946;-78
2023/09/08 15:51:37;;;;;;;4.82;2.35;;;45.10;35.40;;;;;;6140684;22;86323;-78
2023/09/08 15:54:03;;;;;;;3.58;2.55;;;45.00;36.30;;;;;;6142305;22;86733;-77
2023/09/08 15:56:29;;;;;;;8.02;2.35;;;45.10;36.50;;;;;;6142663;22;86877;-77
2023/09/08 15:58:56;;;;;;;6.43;2.70;;;45.10;36.90;;;;;;6145577;22;86221;-76
2023/09/08 16:01:22;;;;;;;6.93;2.38;;;45.30;36.40;;;;;;6142596;22;85896;-74
2023/09/08 16:03:47;;;;;;;7.97;2.83;;;45.30;36.70;;;;;;6167707;22;90623;-75
2023/09/08 16:06:13;;;;;;;8.90;2.15;;;45.40;35.80;;;;;;6138807;22;89491;-75
2023/09/08 16:08:39;;;;;;;5.18;2.50;;;45.40;36.80;;;;;;6141899;22;87055;-76
2023/09/08 16:11:07;;;;;;;9.15;2.60;;;45.50;37.20;;;;;;6155424;22;86075;-75
2023/09/08 16:13:33;;;;;;;9.80;2.33;;;45.20;35.70;;;;;;6111924;22;86406;-74
2023/09/08 16:15:58;;;;;;;5.75;2.30;;;45.10;35.70;;;;;;6136638;22;88170;-74
2023/09/08 16:18:27;;;;;;;9.68;2.50;;;45.10;36.10;;;;;;6112643;23;86127;-75
2023/09/08 16:20:52;;;;;;;6.40;2.75;;;44.70;36.40;;;;;;6110231;23;86384;-75
2023/09/08 16:23:20;;;;;;;8.27;2.65;;;44.50;37.50;;;;;;6136518;22;90508;-74
2023/09/08 16:25:46;;;;;;;6.03;2.53;;;44.30;37.70;;;;;;6112393;23;87242;-75
2023/09/08 16:28:11;;;;;;;9.65;2.25;;;44.20;38.40;;;;;;6111637;23;86562;-74
2023/09/08 16:30:37;;;;;;;8.35;2.92;;;44.00;38.00;;;;;;6136244;22;86150;-75
2023/09/08 16:33:05;;;;;;;6.57;2.60;;;43.80;37.50;;;;;;6112796;22;87796;-75
2023/09/08 16:35:40;;;;;;;6.07;2.33;;;43.60;38.40;;;;;;6110410;22;87257;-75
2023/09/08 16:38:06;;;;;;;6.57;2.40;;;43.30;36.90;;;;;;6120476;22;86782;-75
2023/09/08 16:40:31;;;;;;;6.75;2.33;;;43.20;38.10;;;;;;6141007;22;86068;-75
2023/09/08 16:43:01;;;;;;;8.38;2.88;;;43.00;38.20;;;;;;6142898;22;87079;-75
2023/09/08 16:45:29;;;;;;;7.90;3.10;;;43.10;39.00;;;;;;6142838;22;86566;-75
2023/09/08 16:48:15;;;;;;;3.55;2.50;;;42.90;39.30;;;;;;6140442;22;86330;-75
2023/09/08 16:50:57;;;;;;;4.72;2.45;;;43.00;40.60;;;;;;6141457;22;86600;-76
2023/09/08 16:53:23;;;;;;;7.60;2.73;;;43.10;41.60;;;;;;6142575;22;88245;-74
2023/09/08 16:55:48;;;;;;;7.55;2.22;;;43.10;42.00;;;;;;6166297;22;87845;-75
2023/09/08 16:58:14;;;;;;;5.80;2.65;;;43.00;42.00;;;;;;6143104;22;86224;-74
2023/09/08 17:00:40;;;;;;;6.57;2.70;;;42.90;42.10;;;;;;6143316;22;86850;-75
2023/09/08 17:03:05;;;;;;;4.78;2.50;;;42.80;42.50;;;;;;6141638;22;87017;-76
2023/09/08 17:05:31;;;;;;;8.70;2.95;;;42.50;42.80;;;;;;6164729;22;89496;-75
2023/09/08 17:07:57;;;;;;;5.90;2.97;;;42.20;43.30;;;;;;6141927;22;86354;-75
2023/09/08 17:10:23;;;;;;;7.07;3.20;;;41.90;43.90;;;;;;6142183;22;86625;-75
2023/09/08 17:12:48;;;;;;;5.65;3.30;;;41.70;44.10;;;;;;6142462;22;86683;-75
2023/09/08 17:15:14;;;;;;;5.18;3.13;;;41.20;44.90;;;;;;6141872;22;86276;-75
2023/09/08 17:17:40;;;;;;;4.70;2.97;;;40.70;45.70;;;;;;6141411;22;86171;-75
2023/09/08 17:20:06;;;;;;;6.63;3.38;;;40.10;46.50;;;;;;6139445;22;86302;-75
2023/09/08 17:22:32;;;;;;;5.90;3.30;;;39.50;47.50;;;;;;6139516;22;90900;-74
2023/09/08 17:24:58;;;;;;;6.07;2.92;;;38.80;48.50;;;;;;6140998;22;86836;-74
2023/09/08 17:27:23;;;;;;;8.25;3.40;;;38.20;49.60;;;;;;6164559;22;86345;-74
2023/09/08 17:29:49;;;;;;;7.40;3.60;;;37.70;50.80;;;;;;6142160;22;86061;-75
2023/09/08 17:32:15;;;;;;;7.22;2.85;;;37.10;51.60;;;;;;6141931;22;88008;-75
2023/09/08 17:34:40;;;;;;;6.43;3.05;;;36.60;52.70;;;;;;6166128;22;90182;-75
2023/09/08 17:37:06;;;;;;;4.32;3.17;;;36.00;53.70;;;;;;6142723;22;86358;-75
2023/09/08 17:39:32;;;;;;;6.70;3.45;;;35.60;54.70;;;;;;6139562;22;86210;-74
2023/09/08 17:42:00;;;;;;;7.30;3.70;;;35.10;55.50;;;;;;6139086;22;89564;-74
2023/09/08 17:44:25;;;;;;;10.63;3.85;;;34.60;56.30;;;;;;6141519;22;86265;-74
2023/09/08 17:46:53;;;;;;;6.35;4.15;;;34.20;57.30;;;;;;6140562;22;86143;-74
2023/09/08 17:49:19;;;;;;;5.90;3.47;;;33.80;58.10;;;;;;6164295;22;86265;-76
2023/09/08 17:51:45;;;;;;;8.27;3.78;;;33.40;58.90;;;;;;6140265;22;87403;-75
2023/09/08 17:54:11;;;;;;;6.55;3.60;;;33.20;59.40;;;;;;6142434;22;86369;-76
2023/09/08 17:56:36;;;;;;;6.05;4.15;;;32.90;59.70;;;;;;6142287;22;86064;-75
2023/09/08 17:59:02;;;;;;;8.75;3.75;;;32.70;60.60;;;;;;6137382;22;86577;-75
2023/09/08 18:01:28;;;;;;;9.23;3.80;;;32.50;61.00;;;;;;6160360;22;90632;-75
2023/09/08 18:03:53;;;;;;;8.13;3.83;;;32.20;61.70;;;;;;6139658;22;86357;-76
2023/09/08 18:06:19;;;;;;;4.97;3.63;;;31.90;62.30;;;;;;6166476;22;86316;-75
2023/09/08 18:08:45;;;;;;;8.93;4.00;;;31.60;63.10;;;;;;6140270;22;86423;-75
2023/09/08 18:11:10;;;;;;;10.18;4.18;;;31.40;64.20;;;;;;6142538;22;87571;-75
2023/09/08 18:13:38;;;;;;;7.22;3.42;;;31.10;64.70;;;;;;6141241;22;87574;-74
2023/09/08 18:16:04;;;;;;;5.13;3.15;;;30.70;65.80;;;;;;6142907;22;86410;-75
2023/09/08 18:18:30;;;;;;;9.68;3.90;;;30.50;66.50;;;;;;6142970;22;86687;-75
2023/09/08 18:20:56;;;;;;;14.70;4.72;;;30.20;67.90;;;;;;6141790;22;87401;-75
2023/09/08 18:23:22;;;;;;;10.02;3.72;;;29.90;68.60;;;;;;6141026;22;87010;-75
2023/09/08 18:25:48;;;;;;;7.00;3.67;;;29.70;69.60;;;;;;6141219;22;86065;-74
2023/09/08 18:28:16;;;;;;;5.10;3.72;;;29.50;70.70;;;;;;6143633;22;86774;-76
2023/09/08 18:30:42;;;;;;;7.03;3.85;;;29.30;71.40;;;;;;6166415;22;90395;-75
2023/09/08 18:33:11;;;;;;;7.35;3.72;;;29.00;72.70;;;;;;6141288;22;90236;-76
2023/09/08 18:35:39;;;;;;;7.53;4.15;;;28.70;73.00;;;;;;6142745;22;86253;-76
2023/09/08 18:38:06;;;;;;;6.80;3.60;;;28.50;74.20;;;;;;6143473;22;86630;-76
2023/09/08 18:40:35;;;;;;;10.25;4.15;;;28.30;75.30;;;;;;6166370;22;89831;-75
2023/09/08 18:43:01;;;;;;;8.30;4.47;;;28.10;76.60;;;;;;6143123;22;90232;-76
2023/09/08 18:45:26;;;;;;;9.30;4.05;;;27.90;77.90;;;;;;6144842;22;85989;-75
2023/09/08 18:47:52;;;;;;;9.57;4.20;;;27.60;78.80;;;;;;6143815;22;86317;-75
2023/09/08 18:50:17;;;;;;;10.02;4.30;;;27.50;80.20;;;;;;6142924;22;86953;-75
2023/09/08 18:52:43;;;;;;;12.35;4.80;;;27.20;81.00;;;;;;6140502;22;88824;-76
2023/09/08 18:55:09;;;;;;;7.68;4.72;;;27.00;82.70;;;;;;6142247;22;86563;-77
2023/09/08 18:57:34;;;;;;;13.05;4.43;;;26.80;83.20;;;;;;6165498;22;86916;-76
2023/09/08 19:00:03;;;;;;;14.88;4.80;;;26.70;84.20;;;;;;6141244;22;86267;-77
2023/09/08 19:02:29;;;;;;;13.35;5.18;;;26.50;85.20;;;;;;6169789;22;90116;-76
2023/09/08 19:04:54;;;;;;;7.10;4.75;;;26.40;86.00;;;;;;6161258;22;86536;-75
2023/09/08 19:07:20;;;;;;;7.75;4.82;;;26.30;86.90;;;;;;6116521;22;86569;-76
2023/09/08 19:09:45;;;;;;;8.25;4.38;;;26.10;87.90;;;;;;6147367;22;87325;-76
2023/09/08 19:12:11;;;;;;;12.57;5.28;;;26.00;88.60;;;;;;6145897;22;89297;-76
2023/09/08 19:14:37;;;;;;;7.28;5.45;;;25.90;90.00;;;;;;6116303;22;86026;-75
2023/09/08 19:17:03;;;;;;;7.32;5.60;;;25.70;90.30;;;;;;6115049;23;86300;-75
2023/09/08 19:19:29;;;;;;;16.75;5.10;;;25.60;90.70;;;;;;6136660;22;91147;-76
2023/09/08 19:21:55;;;;;;;6.55;4.68;;;25.40;91.00;;;;;;6115787;22;86379;-75
2023/09/08 19:24:23;;;;;;;9.18;5.57;;;25.20;91.50;;;;;;6116316;22;86003;-76
2023/09/08 19:26:48;;;;;;;10.27;5.90;;;25.10;91.70;;;;;;6116134;23;86204;-75
2023/09/08 19:29:14;;;;;;;7.03;5.32;;;25.00;92.10;;;;;;6121714;22;89185;-76
2023/09/08 19:31:40;;;;;;;7.35;5.00;;;24.90;92.30;;;;;;6166139;22;89375;-75
2023/09/08 19:34:08;;;;;;;10.38;5.35;;;24.80;92.30;;;;;;6141222;22;86571;-76
2023/09/08 19:36:41;;;;;;;14.48;5.75;;;24.70;92.60;;;;;;6142450;22;86189;-75
2023/09/08 19:39:10;;;;;;;;;;;24.60;93.10;;;;;;6166112;22;90651;-76
2023/09/08 19:41:35;;;;;;;11.30;5.80;;;24.50;93.60;;;;;;6143719;22;86274;-76
2023/09/08 19:44:03;;;;;;;13.73;5.75;;;24.40;93.80;;;;;;6141863;22;86391;-75
2023/09/08 19:46:29;;;;;;;7.40;5.10;;;24.30;94.00;;;;;;6141060;22;86530;-75
2023/09/08 19:48:54;;;;;;;10.50;6.65;;;24.20;94.30;;;;;;6165761;22;90280;-76
2023/09/08 19:51:20;;;;;;;11.30;6.03;;;24.10;94.60;;;;;;6140208;22;87248;-75
2023/09/08 19:53:46;;;;;;;11.85;7.45;;;24.00;95.00;;;;;;6147835;22;86410;-77
2023/09/08 19:56:11;;;;;;;13.68;7.13;;;23.90;95.30;;;;;;6122877;22;86106;-75
2023/09/08 19:58:37;;;;;;;10.13;6.63;;;23.80;95.60;;;;;;6165184;22;90365;-75
2023/09/08 20:01:08;;;;;;;13.77;6.50;;;23.70;95.60;;;;;;6142585;22;86741;-75
2023/09/08 20:03:34;;;;;;;11.65;6.75;;;23.60;95.90;;;;;;6141331;22;86073;-74
2023/09/08 20:06:01;;;;;;;12.60;6.95;;;23.60;96.00;;;;;;6141559;22;85862;-75
2023/09/08 20:08:27;;;;;;;8.57;6.00;;;23.50;96.10;;;;;;6141270;22;88153;-74
2023/09/08 20:11:02;;;;;;;10.50;6.03;;;23.50;96.20;;;;;;6166432;22;89782;-75